createdAt,value
2023-04-17T00:00:30.339Z,2.21
2023-04-17T00:02:58.607Z,2.24
2023-04-17T00:05:25.813Z,2.22
2023-04-17T00:07:52.587Z,2.30
2023-04-17T00:10:19.374Z,2.31
2023-04-17T00:12:46.280Z,2.47
2023-04-17T00:15:13.025Z,2.52
2023-04-17T00:17:39.872Z,2.52
2023-04-17T00:20:09.226Z,2.53
2023-04-17T00:22:36.081Z,2.59
2023-04-17T00:25:03.080Z,2.59
2023-04-17T00:27:29.906Z,2.47
2023-04-17T00:29:56.664Z,2.43
2023-04-17T00:32:23.584Z,2.39
2023-04-17T00:34:50.414Z,2.55
2023-04-17T00:37:18.581Z,2.44
2023-04-17T00:39:45.313Z,2.55
2023-04-17T00:42:12.002Z,2.61
2023-04-17T00:44:38.839Z,2.51
2023-04-17T00:47:05.817Z,2.68
2023-04-17T00:49:32.703Z,2.71
2023-04-17T00:51:59.863Z,2.69
2023-04-17T00:54:28.185Z,2.64
2023-04-17T00:56:56.851Z,2.59
2023-04-17T00:59:25.069Z,2.53
2023-04-17T01:01:51.876Z,2.48
2023-04-17T01:04:18.955Z,2.55
2023-04-17T01:06:46.324Z,2.56
2023-04-17T01:09:13.933Z,2.57
2023-04-17T01:11:42.262Z,2.59
2023-04-17T01:14:09.032Z,2.54
2023-04-17T01:16:35.892Z,2.56
2023-04-17T01:19:02.727Z,2.49
2023-04-17T01:21:29.532Z,2.54
2023-04-17T01:24:01.840Z,2.49
2023-04-17T01:26:31.473Z,2.61
2023-04-17T01:28:59.837Z,2.63
2023-04-17T01:31:27.624Z,2.64
2023-04-17T01:33:54.715Z,2.59
2023-04-17T01:36:21.723Z,2.55
2023-04-17T01:38:48.526Z,2.42
2023-04-17T01:41:16.761Z,2.46
2023-04-17T01:43:45.849Z,2.42
2023-04-17T01:46:12.970Z,2.35
2023-04-17T01:48:40.089Z,2.32
2023-04-17T01:51:06.975Z,2.48
2023-04-17T01:53:34.500Z,2.34
2023-04-17T01:56:01.364Z,2.41
2023-04-17T01:58:30.068Z,2.49
2023-04-17T02:00:57.212Z,2.43
2023-04-17T02:03:24.168Z,2.43
2023-04-17T02:05:53.122Z,2.47
2023-04-17T02:08:19.960Z,2.47
2023-04-17T02:10:46.791Z,2.48
2023-04-17T02:13:13.677Z,2.44
2023-04-17T02:15:42.380Z,2.39
2023-04-17T02:18:09.574Z,2.35
2023-04-17T02:20:37.842Z,2.33
2023-04-17T02:23:05.742Z,2.40
2023-04-17T02:25:32.668Z,2.36
2023-04-17T02:27:59.731Z,2.39
2023-04-17T02:30:27.171Z,2.33
2023-04-17T02:32:55.577Z,2.30
2023-04-17T02:35:23.893Z,2.25
2023-04-17T02:37:50.609Z,2.20
2023-04-17T02:40:17.620Z,2.16
2023-04-17T02:42:44.503Z,2.12
2023-04-17T02:45:11.477Z,2.08
2023-04-17T02:47:38.252Z,2.06
2023-04-17T02:50:07.854Z,2.11
2023-04-17T02:52:34.724Z,2.13
2023-04-17T02:55:01.604Z,2.20
2023-04-17T02:57:28.432Z,2.15
2023-04-17T02:59:55.213Z,2.14
2023-04-17T03:02:22.200Z,2.12
2023-04-17T03:04:49.456Z,2.12
2023-04-17T03:07:18.360Z,2.12
2023-04-17T03:09:45.734Z,2.06
2023-04-17T03:12:12.923Z,2.01
2023-04-17T03:14:40.004Z,2.00
2023-04-17T03:17:07.134Z,1.98
2023-04-17T03:19:34.081Z,1.99
2023-04-17T03:22:00.953Z,1.98
2023-04-17T03:24:29.281Z,1.96
2023-04-17T03:26:56.008Z,1.92
2023-04-17T03:29:22.819Z,1.79
2023-04-17T03:31:49.744Z,1.80
2023-04-17T03:34:17.061Z,1.81
2023-04-17T03:36:43.941Z,1.79
2023-04-17T03:39:11.169Z,1.75
2023-04-17T03:41:39.655Z,1.78
2023-04-17T03:44:06.437Z,1.82
2023-04-17T03:46:33.218Z,1.81
2023-04-17T03:48:59.998Z,1.84
2023-04-17T03:51:27.155Z,1.86
2023-04-17T03:53:53.970Z,1.83
2023-04-17T03:56:20.797Z,1.89
2023-04-17T03:58:49.029Z,1.88
2023-04-17T04:01:16.003Z,1.89
2023-04-17T04:03:43.262Z,1.89
2023-04-17T04:06:10.377Z,1.88
2023-04-17T04:08:37.142Z,1.82
2023-04-17T04:11:04.033Z,1.74
2023-04-17T04:13:30.771Z,1.82
2023-04-17T04:15:58.970Z,1.88
2023-04-17T04:18:25.776Z,1.85
2023-04-17T04:20:52.537Z,1.81
2023-04-17T04:23:19.320Z,1.85
2023-04-17T04:25:46.135Z,1.88
2023-04-17T04:28:12.898Z,1.92
2023-04-17T04:30:39.682Z,1.95
2023-04-17T04:33:07.921Z,1.97
2023-04-17T04:35:34.704Z,1.99
2023-04-17T04:38:01.456Z,1.97
2023-04-17T04:40:28.277Z,1.97
2023-04-17T04:42:55.087Z,1.96
2023-04-17T04:45:22.012Z,1.97
2023-04-17T04:47:48.837Z,2.03
2023-04-17T04:50:17.071Z,2.08
2023-04-17T04:52:43.853Z,2.10
2023-04-17T04:55:10.605Z,2.08
2023-04-17T04:57:37.381Z,2.18
2023-04-17T05:00:05.143Z,2.27
2023-04-17T05:02:32.112Z,2.33
2023-04-17T05:04:59.085Z,2.36
2023-04-17T05:07:27.370Z,2.41
2023-04-17T05:09:54.121Z,2.41
2023-04-17T05:12:20.881Z,2.48
2023-04-17T05:14:47.590Z,2.48
2023-04-17T05:17:14.433Z,2.47
2023-04-17T05:19:41.199Z,2.40
2023-04-17T05:22:07.944Z,2.46
2023-04-17T05:24:36.063Z,2.52
2023-04-17T05:27:02.848Z,2.49
2023-04-17T05:29:29.637Z,2.43
2023-04-17T05:31:56.509Z,2.46
2023-04-17T05:34:23.305Z,2.54
2023-04-17T05:36:50.156Z,2.66
2023-04-17T05:39:16.870Z,2.69
2023-04-17T05:41:44.983Z,2.73
2023-04-17T05:44:11.724Z,2.89
2023-04-17T05:46:38.461Z,2.90
2023-04-17T05:49:05.249Z,2.94
2023-04-17T05:51:31.989Z,3.02
2023-04-17T05:53:58.746Z,3.11
2023-04-17T05:56:25.553Z,3.20
2023-04-17T05:58:53.679Z,3.26
2023-04-17T06:01:20.673Z,3.31
2023-04-17T06:03:47.744Z,3.36
2023-04-17T06:06:14.884Z,3.44
2023-04-17T06:08:41.631Z,3.49
2023-04-17T06:11:08.407Z,3.45
2023-04-17T06:13:35.174Z,3.52
2023-04-17T06:16:03.307Z,3.58
2023-04-17T06:18:30.084Z,3.60
2023-04-17T06:20:57.901Z,3.64
2023-04-17T06:23:24.720Z,3.67
2023-04-17T06:25:51.427Z,3.68
2023-04-17T06:28:18.167Z,3.72
2023-04-17T06:30:44.994Z,3.73
2023-04-17T06:33:13.112Z,3.79
2023-04-17T06:35:39.991Z,3.85
2023-04-17T06:38:07.052Z,3.91
2023-04-17T06:40:33.903Z,3.92
2023-04-17T06:43:00.737Z,4.00
2023-04-17T06:45:27.572Z,4.11
2023-04-17T06:47:54.463Z,4.21
2023-04-17T06:50:22.836Z,4.31
2023-04-17T06:52:49.579Z,4.42
2023-04-17T06:55:17.140Z,4.53
2023-04-17T06:57:43.916Z,4.64
2023-04-17T07:00:12.065Z,4.74
2023-04-17T07:02:38.951Z,4.85
2023-04-17T07:05:06.750Z,4.89
2023-04-17T07:07:34.917Z,4.92
2023-04-17T07:10:02.169Z,5.00
2023-04-17T07:12:29.053Z,5.15
2023-04-17T07:14:55.852Z,5.26
2023-04-17T07:17:22.725Z,5.33
2023-04-17T07:19:49.486Z,5.41
2023-04-17T07:22:16.338Z,5.43
2023-04-17T07:24:44.488Z,5.45
2023-04-17T07:27:11.345Z,5.46
2023-04-17T07:29:38.089Z,5.51
2023-04-17T07:32:05.124Z,5.58
2023-04-17T07:34:31.939Z,5.64
2023-04-17T07:36:58.776Z,5.72
2023-04-17T07:39:25.872Z,5.80
2023-04-17T07:41:54.060Z,5.91
2023-04-17T07:44:20.810Z,6.02
2023-04-17T07:46:47.727Z,6.16
2023-04-17T07:49:14.747Z,6.31
2023-04-17T07:51:41.745Z,6.44
2023-04-17T07:54:08.527Z,6.56
2023-04-17T07:56:35.357Z,6.66
2023-04-17T07:59:03.765Z,6.78
2023-04-17T08:01:30.524Z,6.87
2023-04-17T08:03:57.646Z,6.88
2023-04-17T08:06:24.840Z,7.09
2023-04-17T08:08:51.571Z,7.27
2023-04-17T08:11:18.279Z,7.53
2023-04-17T08:13:45.452Z,7.79
2023-04-17T08:16:13.692Z,8.04
2023-04-17T08:18:41.811Z,8.26
2023-04-17T08:21:08.834Z,8.65
2023-04-17T08:23:35.627Z,8.81
2023-04-17T08:26:02.432Z,9.03
2023-04-17T08:28:29.224Z,9.21
2023-04-17T08:30:56.043Z,9.42
2023-04-17T08:33:24.232Z,9.50
2023-04-17T08:35:51.665Z,9.57
2023-04-17T08:38:18.426Z,9.63
2023-04-17T08:40:49.304Z,9.63
2023-04-17T08:43:18.309Z,9.64
2023-04-17T08:45:48.507Z,9.64
2023-04-17T08:48:15.475Z,9.69
2023-04-17T08:50:47.444Z,9.68
2023-04-17T08:53:14.245Z,9.65
2023-04-17T08:55:41.099Z,9.66
2023-04-17T08:58:07.997Z,9.75
2023-04-17T09:00:36.542Z,9.69
2023-04-17T09:03:05.726Z,9.67
2023-04-17T09:05:33.004Z,9.62
2023-04-17T09:08:12.550Z,9.52
2023-04-17T09:10:40.747Z,9.40
2023-04-17T09:13:07.660Z,9.36
2023-04-17T09:15:35.175Z,9.31
2023-04-17T09:18:02.613Z,9.28
2023-04-17T09:20:29.514Z,9.29
2023-04-17T09:23:01.756Z,9.33
2023-04-17T09:25:30.278Z,9.41
2023-04-17T09:28:09.682Z,9.47
2023-04-17T09:30:37.526Z,9.57
2023-04-17T09:33:05.967Z,9.59
2023-04-17T09:35:33.358Z,9.60
2023-04-17T09:38:00.577Z,9.71
2023-04-17T09:40:36.047Z,9.72
2023-04-17T09:43:06.113Z,9.70
2023-04-17T09:45:35.010Z,9.56
2023-04-17T09:48:04.902Z,9.44
2023-04-17T09:50:32.432Z,9.34
2023-04-17T09:52:59.309Z,9.12
2023-04-17T09:55:27.188Z,9.01
2023-04-17T09:57:55.654Z,8.93
2023-04-17T10:00:26.191Z,8.81
2023-04-17T10:02:54.141Z,8.72
2023-04-17T10:05:21.990Z,8.68
2023-04-17T10:07:48.805Z,8.70
2023-04-17T10:10:23.202Z,8.72
2023-04-17T10:12:51.912Z,8.71
2023-04-17T10:15:19.766Z,8.71
2023-04-17T10:17:48.085Z,8.69
2023-04-17T10:20:37.134Z,8.73
2023-04-17T10:23:26.266Z,8.81
2023-04-17T10:26:42.553Z,8.82
2023-04-17T10:29:09.377Z,8.85
2023-04-17T10:32:12.689Z,8.89
2023-04-17T10:34:43.338Z,9.03
2023-04-17T10:37:10.884Z,9.08
2023-04-17T10:39:56.178Z,9.11
2023-04-17T10:42:23.907Z,9.02
2023-04-17T10:44:51.944Z,8.96
2023-04-17T10:47:21.682Z,8.84
2023-04-17T10:49:51.357Z,8.78
2023-04-17T10:52:41.226Z,8.77
2023-04-17T10:55:09.909Z,8.86
2023-04-17T10:58:00.221Z,8.97
2023-04-17T11:00:32.646Z,9.10
2023-04-17T11:03:01.077Z,9.22
2023-04-17T11:05:30.211Z,9.36
2023-04-17T11:07:57.139Z,9.48
2023-04-17T11:10:24.393Z,9.59
2023-04-17T11:12:53.408Z,9.71
2023-04-17T11:15:26.361Z,9.75
2023-04-17T11:17:55.101Z,9.77
2023-04-17T11:20:24.697Z,9.86
2023-04-17T11:22:54.601Z,9.94
2023-04-17T11:25:25.108Z,10.02
2023-04-17T11:27:56.763Z,9.91
2023-04-17T11:30:27.458Z,9.82
2023-04-17T11:32:57.350Z,9.76
2023-04-17T11:35:29.642Z,9.69
2023-04-17T11:38:12.933Z,9.52
2023-04-17T11:40:47.342Z,9.39
2023-04-17T11:43:14.747Z,9.29
2023-04-17T11:45:43.118Z,9.18
2023-04-17T11:48:11.361Z,9.12
2023-04-17T11:50:38.727Z,9.02
2023-04-17T11:53:06.404Z,8.94
2023-04-17T11:55:34.830Z,8.79
2023-04-17T11:58:03.640Z,8.80
2023-04-17T12:00:31.181Z,8.80
2023-04-17T12:02:59.685Z,8.81
2023-04-17T12:05:27.949Z,8.79
2023-04-17T12:08:02.711Z,8.75
2023-04-17T12:10:38.912Z,8.74
2023-04-17T12:13:05.859Z,8.72
2023-04-17T12:15:32.712Z,8.75
2023-04-17T12:17:59.550Z,8.84
2023-04-17T12:20:27.276Z,8.93
2023-04-17T12:22:54.822Z,9.06
2023-04-17T12:25:21.563Z,9.20
2023-04-17T12:27:49.691Z,9.28
2023-04-17T12:30:16.585Z,9.37
2023-04-17T12:32:43.414Z,9.42
2023-04-17T12:35:10.228Z,9.45
2023-04-17T12:37:37.037Z,9.45
2023-04-17T12:40:04.524Z,9.47
2023-04-17T12:42:33.703Z,9.49
2023-04-17T12:45:09.581Z,9.47
2023-04-17T12:47:36.578Z,9.36
2023-04-17T12:50:04.422Z,9.36
2023-04-17T12:52:31.311Z,9.39
2023-04-17T12:54:58.053Z,9.39
2023-04-17T12:57:25.091Z,9.38
2023-04-17T12:59:51.826Z,9.45
2023-04-17T13:02:20.157Z,9.53
2023-04-17T13:04:47.042Z,9.64
2023-04-17T13:07:13.845Z,9.73
2023-04-17T13:09:40.591Z,9.85
2023-04-17T13:12:07.531Z,9.94
2023-04-17T13:14:34.516Z,10.02
2023-04-17T13:17:02.258Z,10.07
2023-04-17T13:19:32.172Z,10.12
2023-04-17T13:21:59.522Z,10.10
2023-04-17T13:24:26.858Z,10.12
2023-04-17T13:26:55.184Z,10.12
2023-04-17T13:29:21.954Z,10.05
2023-04-17T13:31:48.879Z,9.98
2023-04-17T13:34:15.691Z,9.87
2023-04-17T13:36:43.933Z,9.77
2023-04-17T13:39:11.349Z,9.61
2023-04-17T13:41:38.590Z,9.51
2023-04-17T13:44:06.009Z,9.47
2023-04-17T13:46:33.090Z,9.28
2023-04-17T13:49:00.768Z,9.16
2023-04-17T13:51:27.682Z,9.05
2023-04-17T13:53:55.952Z,9.16
2023-04-17T13:56:22.720Z,9.06
2023-04-17T13:58:49.521Z,9.08
2023-04-17T14:01:16.309Z,9.14
2023-04-17T14:03:46.224Z,9.18
2023-04-17T14:06:14.761Z,9.36
2023-04-17T14:08:42.962Z,9.44
2023-04-17T14:11:12.924Z,9.48
2023-04-17T14:13:39.757Z,9.49
2023-04-17T14:16:07.034Z,9.53
2023-04-17T14:18:33.986Z,9.57
2023-04-17T14:21:00.824Z,9.61
2023-04-17T14:23:27.849Z,9.75
2023-04-17T14:25:54.634Z,9.91
2023-04-17T14:28:22.912Z,10.12
2023-04-17T14:30:50.620Z,10.23
2023-04-17T14:33:17.400Z,10.27
2023-04-17T14:35:44.160Z,10.21
2023-04-17T14:38:10.910Z,10.13
2023-04-17T14:40:37.837Z,10.08
2023-04-17T14:43:04.618Z,9.99
2023-04-17T14:45:33.030Z,9.96
2023-04-17T14:47:59.998Z,9.91
2023-04-17T14:50:26.991Z,9.90
2023-04-17T14:52:53.856Z,9.88
2023-04-17T14:55:21.106Z,9.91
2023-04-17T14:57:48.046Z,9.93
2023-04-17T15:00:16.007Z,9.92
2023-04-17T15:02:44.374Z,9.93
2023-04-17T15:05:11.410Z,9.93
2023-04-17T15:07:38.276Z,9.87
2023-04-17T15:10:06.072Z,9.81
2023-04-17T15:12:32.912Z,9.75
2023-04-17T15:14:59.685Z,9.72
2023-04-17T15:17:26.582Z,9.69
2023-04-17T15:19:55.011Z,9.65
2023-04-17T15:22:21.776Z,9.59
2023-04-17T15:24:48.642Z,9.50
2023-04-17T15:27:15.577Z,9.47
2023-04-17T15:29:43.956Z,9.45
2023-04-17T15:32:10.718Z,9.36
2023-04-17T15:34:38.568Z,9.31
2023-04-17T15:37:07.939Z,9.27
2023-04-17T15:39:35.824Z,9.15
2023-04-17T15:42:02.671Z,8.97
2023-04-17T15:44:29.444Z,9.06
2023-04-17T15:46:56.353Z,9.12
2023-04-17T15:49:23.296Z,9.11
2023-04-17T15:51:50.545Z,9.03
2023-04-17T15:54:18.706Z,9.14
2023-04-17T15:56:45.469Z,9.15
2023-04-17T15:59:12.498Z,9.21
2023-04-17T16:01:39.500Z,9.36
2023-04-17T16:04:06.479Z,9.42
2023-04-17T16:06:33.678Z,9.52
2023-04-17T16:09:01.127Z,9.31
2023-04-17T16:11:29.280Z,9.41
2023-04-17T16:13:55.984Z,9.14
2023-04-17T16:16:22.893Z,9.23
2023-04-17T16:18:49.850Z,9.18
2023-04-17T16:21:16.660Z,9.04
2023-04-17T16:23:43.448Z,9.07
2023-04-17T16:26:11.100Z,9.01
2023-04-17T16:28:39.316Z,8.86
2023-04-17T16:31:06.206Z,8.97
2023-04-17T16:33:32.998Z,8.99
2023-04-17T16:35:59.773Z,8.88
2023-04-17T16:38:26.578Z,8.92
2023-04-17T16:40:53.486Z,8.80
2023-04-17T16:43:20.296Z,8.64
2023-04-17T16:45:48.472Z,8.49
2023-04-17T16:48:15.252Z,8.34
2023-04-17T16:50:42.107Z,8.32
2023-04-17T16:53:08.887Z,8.19
2023-04-17T16:55:36.744Z,8.11
2023-04-17T16:58:03.508Z,8.15
2023-04-17T17:00:30.550Z,8.03
2023-04-17T17:02:58.729Z,7.86
2023-04-17T17:05:25.606Z,7.84
2023-04-17T17:07:52.396Z,7.89
2023-04-17T17:10:19.198Z,7.75
2023-04-17T17:12:45.913Z,7.52
2023-04-17T17:15:12.674Z,7.50
2023-04-17T17:17:39.485Z,7.56
2023-04-17T17:20:09.243Z,7.54
2023-04-17T17:22:36.016Z,7.51
2023-04-17T17:25:02.853Z,7.49
2023-04-17T17:27:29.755Z,7.38
2023-04-17T17:29:58.405Z,7.23
2023-04-17T17:32:26.933Z,7.22
2023-04-17T17:34:54.188Z,7.12
2023-04-17T17:37:22.372Z,7.05
2023-04-17T17:39:49.110Z,7.07
2023-04-17T17:42:15.845Z,7.05
2023-04-17T17:44:42.582Z,7.05
2023-04-17T17:47:09.373Z,6.92
2023-04-17T17:49:36.237Z,6.86
2023-04-17T17:52:03.002Z,6.82
2023-04-17T17:54:35.166Z,6.70
2023-04-17T17:57:01.939Z,6.67
2023-04-17T17:59:28.737Z,6.43
2023-04-17T18:01:56.108Z,6.40
2023-04-17T18:04:23.535Z,6.34
2023-04-17T18:06:51.024Z,6.43
2023-04-17T18:09:18.592Z,6.39
2023-04-17T18:11:48.233Z,6.27
2023-04-17T18:14:15.606Z,6.21
2023-04-17T18:16:43.065Z,6.13
2023-04-17T18:19:10.248Z,6.14
2023-04-17T18:21:37.604Z,6.17
2023-04-17T18:24:05.767Z,6.19
2023-04-17T18:26:33.002Z,6.14
2023-04-17T18:29:01.838Z,6.23
2023-04-17T18:31:29.204Z,6.14
2023-04-17T18:33:56.644Z,6.04
2023-04-17T18:36:24.123Z,5.96
2023-04-17T18:38:51.561Z,5.85
2023-04-17T18:41:18.788Z,5.95
2023-04-17T18:43:46.109Z,5.88
2023-04-17T18:46:14.987Z,5.82
2023-04-17T18:48:42.410Z,5.71
2023-04-17T18:51:10.902Z,5.62
2023-04-17T18:53:38.480Z,5.67
2023-04-17T18:56:06.606Z,5.67
2023-04-17T18:58:34.167Z,5.85
2023-04-17T19:01:01.648Z,5.94
2023-04-17T19:03:30.681Z,5.82
2023-04-17T19:05:57.499Z,5.69
2023-04-17T19:08:24.241Z,5.52
2023-04-17T19:10:50.935Z,5.37
2023-04-17T19:13:17.740Z,5.26
2023-04-17T19:15:44.466Z,5.23
2023-04-17T19:18:11.276Z,5.13
2023-04-17T19:20:39.399Z,5.09
2023-04-17T19:23:06.524Z,4.92
2023-04-17T19:25:33.284Z,4.80
2023-04-17T19:28:01.043Z,4.78
2023-04-17T19:30:27.886Z,4.66
2023-04-17T19:32:54.745Z,4.69
2023-04-17T19:35:22.566Z,4.70
2023-04-17T19:37:50.787Z,4.65
2023-04-17T19:40:24.292Z,4.64
2023-04-17T19:42:52.153Z,4.54
2023-04-17T19:45:24.523Z,4.43
2023-04-17T19:47:52.549Z,4.42
2023-04-17T19:50:20.434Z,4.39
2023-04-17T19:52:48.353Z,4.32
2023-04-17T19:55:16.699Z,4.23
2023-04-17T19:57:43.848Z,4.18
2023-04-17T20:00:12.285Z,4.12
2023-04-17T20:02:40.004Z,4.04
2023-04-17T20:05:07.714Z,4.02
2023-04-17T20:07:34.691Z,3.94
2023-04-17T20:10:01.587Z,3.96
2023-04-17T20:12:30.031Z,3.96
2023-04-17T20:14:56.886Z,3.91
2023-04-17T20:17:23.733Z,3.90
2023-04-17T20:19:50.483Z,3.93
2023-04-17T20:22:17.302Z,3.99
2023-04-17T20:24:44.206Z,3.98
2023-04-17T20:27:11.131Z,3.87
2023-04-17T20:29:39.308Z,3.92
2023-04-17T20:32:06.160Z,3.99
2023-04-17T20:34:32.950Z,3.89
2023-04-17T20:36:59.697Z,3.94
2023-04-17T20:39:26.580Z,3.96
2023-04-17T20:41:53.380Z,4.01
2023-04-17T20:44:20.253Z,3.91
2023-04-17T20:46:48.426Z,3.76
2023-04-17T20:49:15.252Z,3.93
2023-04-17T20:51:42.086Z,3.97
2023-04-17T20:54:08.886Z,3.81
2023-04-17T20:56:35.787Z,3.73
2023-04-17T20:59:02.779Z,3.68
2023-04-17T21:01:29.588Z,3.59
2023-04-17T21:03:57.918Z,3.57
2023-04-17T21:06:24.849Z,3.47
2023-04-17T21:08:51.644Z,3.43
2023-04-17T21:11:18.454Z,3.42
2023-04-17T21:13:45.198Z,3.43
2023-04-17T21:16:12.113Z,3.36
2023-04-17T21:18:39.009Z,3.29
2023-04-17T21:21:07.134Z,3.02
2023-04-17T21:23:33.881Z,3.10
2023-04-17T21:26:00.589Z,3.06
2023-04-17T21:28:27.632Z,3.13
2023-04-17T21:30:54.553Z,3.16
2023-04-17T21:33:21.341Z,3.20
2023-04-17T21:35:48.101Z,3.14
2023-04-17T21:38:16.194Z,3.10
2023-04-17T21:40:50.998Z,3.00
2023-04-17T21:43:18.477Z,2.90
2023-04-17T21:45:45.278Z,2.85
2023-04-17T21:48:13.830Z,2.71
2023-04-17T21:50:40.621Z,2.74
2023-04-17T21:53:07.462Z,2.73
2023-04-17T21:55:35.848Z,2.79
2023-04-17T21:58:03.008Z,2.88
2023-04-17T22:00:29.839Z,2.88
2023-04-17T22:02:56.702Z,2.86
2023-04-17T22:05:23.638Z,2.82
2023-04-17T22:07:54.908Z,2.79
2023-04-17T22:10:22.941Z,2.80
2023-04-17T22:12:51.213Z,2.81
2023-04-17T22:15:18.102Z,2.79
2023-04-17T22:17:44.937Z,2.73
2023-04-17T22:20:12.634Z,2.72
2023-04-17T22:22:39.530Z,2.68
2023-04-17T22:25:06.752Z,2.64
2023-04-17T22:27:33.529Z,2.67
2023-04-17T22:30:01.791Z,2.71
2023-04-17T22:32:28.644Z,2.79
2023-04-17T22:34:55.536Z,2.79
2023-04-17T22:37:22.391Z,2.69
2023-04-17T22:39:49.481Z,2.61
2023-04-17T22:42:16.298Z,2.60
2023-04-17T22:44:43.092Z,2.53
2023-04-17T22:47:11.296Z,2.60
2023-04-17T22:49:38.131Z,2.71
2023-04-17T22:52:05.020Z,2.82
2023-04-17T22:54:31.871Z,2.84
2023-04-17T22:56:58.762Z,2.92
2023-04-17T22:59:25.551Z,3.06
2023-04-17T23:01:52.681Z,3.11
2023-04-17T23:04:22.242Z,3.05
2023-04-17T23:06:49.088Z,2.98
2023-04-17T23:09:15.905Z,3.00
2023-04-17T23:11:42.707Z,3.04
2023-04-17T23:14:09.497Z,3.05
2023-04-17T23:16:36.468Z,3.06
2023-04-17T23:19:03.286Z,3.04
2023-04-17T23:21:31.496Z,3.03
2023-04-17T23:23:58.251Z,3.03
2023-04-17T23:26:25.107Z,3.01
2023-04-17T23:28:51.919Z,2.98
2023-04-17T23:31:18.723Z,2.93
2023-04-17T23:33:45.513Z,2.97
2023-04-17T23:36:12.302Z,2.88
2023-04-17T23:38:40.462Z,2.86
2023-04-17T23:41:07.239Z,2.91
2023-04-17T23:43:34.014Z,2.87
2023-04-17T23:46:00.790Z,2.81
2023-04-17T23:48:27.644Z,2.77
2023-04-17T23:50:54.475Z,2.70
2023-04-17T23:53:21.252Z,2.65
2023-04-17T23:55:49.410Z,2.58
2023-04-17T23:58:16.138Z,2.52
